createdAt,value
2019-01-12T00:00:35.531Z,0.40
2019-01-12T00:03:04.511Z,0.40
2019-01-12T00:05:33.476Z,0.50
2019-01-12T00:08:02.434Z,0.50
2019-01-12T00:10:31.441Z,0.50
2019-01-12T00:13:00.304Z,0.60
2019-01-12T00:15:29.329Z,0.60
2019-01-12T00:17:58.260Z,0.60
2019-01-12T00:20:27.151Z,0.50
2019-01-12T00:22:56.148Z,0.50
2019-01-12T00:25:25.139Z,0.50
2019-01-12T00:27:54.049Z,0.60
2019-01-12T00:30:23.026Z,0.50
2019-01-12T00:32:51.973Z,0.60
2019-01-12T00:35:20.943Z,0.60
2019-01-12T00:37:56.138Z,0.60
2019-01-12T00:40:25.137Z,0.60
2019-01-12T00:42:54.057Z,0.50
2019-01-12T00:45:22.966Z,0.50
2019-01-12T00:47:51.938Z,0.60
2019-01-12T00:50:21.441Z,0.60
2019-01-12T00:52:50.349Z,0.60
2019-01-12T00:55:19.252Z,0.60
2019-01-12T00:57:48.143Z,0.60
2019-01-12T01:00:19.589Z,0.60
2019-01-12T01:02:48.969Z,0.60
2019-01-12T01:05:18.668Z,0.50
2019-01-12T01:07:47.567Z,0.40
2019-01-12T01:10:18.761Z,0.50
2019-01-12T01:12:47.737Z,0.50
2019-01-12T01:15:17.486Z,0.50
2019-01-12T01:17:46.411Z,0.60
2019-01-12T01:20:16.146Z,0.60
2019-01-12T01:22:45.887Z,0.50
2019-01-12T01:25:15.065Z,0.60
2019-01-12T01:27:43.956Z,0.50
2019-01-12T01:30:17.979Z,0.60
2019-01-12T01:32:46.945Z,0.70
2019-01-12T01:35:16.017Z,0.60
2019-01-12T01:37:45.007Z,0.60
2019-01-12T01:40:15.989Z,0.70
2019-01-12T01:42:45.393Z,0.70
2019-01-12T01:45:15.301Z,0.70
2019-01-12T01:47:44.293Z,0.70
2019-01-12T01:50:14.257Z,0.70
2019-01-12T01:52:43.933Z,0.70
2019-01-12T01:55:13.226Z,0.70
2019-01-12T01:57:42.239Z,0.70
2019-01-12T02:00:14.374Z,0.70
2019-01-12T02:02:43.267Z,0.80
2019-01-12T02:05:12.794Z,0.70
2019-01-12T02:07:41.922Z,0.80
2019-01-12T02:10:19.894Z,0.70
2019-01-12T02:13:08.249Z,0.80
2019-01-12T02:15:37.225Z,0.70
2019-01-12T02:18:06.226Z,0.80
2019-01-12T02:20:35.209Z,0.80
2019-01-12T02:23:04.181Z,0.80
2019-01-12T02:25:33.188Z,0.90
2019-01-12T02:28:02.072Z,0.90
2019-01-12T02:30:31.070Z,0.80
2019-01-12T02:32:59.992Z,0.80
2019-01-12T02:35:28.884Z,0.90
2019-01-12T02:37:58.081Z,0.80
2019-01-12T02:40:26.997Z,0.80
2019-01-12T02:42:56.258Z,0.80
2019-01-12T02:45:25.109Z,0.80
2019-01-12T02:47:54.167Z,0.80
2019-01-12T02:50:23.010Z,0.80
2019-01-12T02:52:52.195Z,0.80
2019-01-12T02:55:21.095Z,0.90
2019-01-12T02:57:50.073Z,0.90
2019-01-12T03:00:19.522Z,0.90
2019-01-12T03:02:48.488Z,0.80
2019-01-12T03:05:17.463Z,0.90
2019-01-12T03:07:46.441Z,1.00
2019-01-12T03:10:17.163Z,0.90
2019-01-12T03:12:46.458Z,0.90
2019-01-12T03:15:17.398Z,0.80
2019-01-12T03:17:46.476Z,0.80
2019-01-12T03:20:19.510Z,0.90
2019-01-12T03:22:48.733Z,0.90
2019-01-12T03:25:19.188Z,0.90
2019-01-12T03:27:48.369Z,1.00
2019-01-12T03:30:18.780Z,1.00
2019-01-12T03:32:47.908Z,1.00
2019-01-12T03:35:16.992Z,1.10
2019-01-12T03:37:46.052Z,1.00
2019-01-12T03:40:19.963Z,1.00
2019-01-12T03:42:49.025Z,1.00
2019-01-12T03:45:19.446Z,1.00
2019-01-12T03:47:48.917Z,1.00
2019-01-12T03:50:18.523Z,1.00
2019-01-12T03:52:47.555Z,0.90
2019-01-12T03:55:16.906Z,0.90
2019-01-12T03:57:45.902Z,0.90
2019-01-12T04:00:19.865Z,1.00
2019-01-12T04:02:48.950Z,1.00
2019-01-12T04:05:18.022Z,1.10
2019-01-12T04:07:46.935Z,1.10
2019-01-12T04:10:15.935Z,1.10
2019-01-12T04:12:44.933Z,1.00
2019-01-12T04:15:14.179Z,1.00
2019-01-12T04:17:43.109Z,1.00
2019-01-12T04:20:13.879Z,1.10
2019-01-12T04:22:42.868Z,1.10
2019-01-12T04:25:12.188Z,0.90
2019-01-12T04:27:41.148Z,0.90
2019-01-12T04:30:13.118Z,1.00
2019-01-12T04:32:42.045Z,1.00
2019-01-12T04:35:11.011Z,1.10
2019-01-12T04:37:39.914Z,1.10
2019-01-12T04:40:15.167Z,1.10
2019-01-12T04:42:44.128Z,1.00
2019-01-12T04:45:13.506Z,1.10
2019-01-12T04:47:42.405Z,1.10
2019-01-12T04:50:14.145Z,1.10
2019-01-12T04:52:43.282Z,1.10
2019-01-12T04:55:12.678Z,1.10
2019-01-12T04:57:41.926Z,1.10
2019-01-12T05:00:17.090Z,1.10
2019-01-12T05:02:46.006Z,1.10
2019-01-12T05:05:15.404Z,1.20
2019-01-12T05:07:44.393Z,1.20
2019-01-12T05:10:13.836Z,1.10
2019-01-12T05:12:42.776Z,1.20
2019-01-12T05:15:12.952Z,1.10
2019-01-12T05:17:41.909Z,1.10
2019-01-12T05:20:14.013Z,1.20
2019-01-12T05:22:42.975Z,1.20
2019-01-12T05:25:12.295Z,1.10
2019-01-12T05:27:41.254Z,1.10
2019-01-12T05:30:13.080Z,1.20
2019-01-12T05:37:11.467Z,1.20
2019-01-12T05:39:40.430Z,1.20
2019-01-12T05:42:09.897Z,1.30
2019-01-12T05:44:38.795Z,1.40
2019-01-12T05:47:07.798Z,1.30
2019-01-12T05:49:36.901Z,1.40
2019-01-12T05:52:06.201Z,1.40
2019-01-12T05:54:35.018Z,1.40
2019-01-12T05:57:04.020Z,1.40
2019-01-12T05:59:32.937Z,1.40
2019-01-12T06:02:01.758Z,1.40
2019-01-12T06:04:30.957Z,1.20
2019-01-12T06:06:59.964Z,1.30
2019-01-12T06:09:29.997Z,1.30
2019-01-12T06:11:59.201Z,1.40
2019-01-12T06:14:28.105Z,1.40
2019-01-12T06:16:56.991Z,1.40
2019-01-12T06:19:25.966Z,1.30
2019-01-12T06:21:55.095Z,1.30
2019-01-12T06:24:24.001Z,1.30
2019-01-12T06:26:53.370Z,1.30
2019-01-12T06:29:22.469Z,1.30
2019-01-12T06:31:51.352Z,1.20
2019-01-12T06:34:20.170Z,1.20
2019-01-12T06:36:49.001Z,1.30
2019-01-12T06:39:17.833Z,1.30
2019-01-12T06:41:46.744Z,1.30
2019-01-12T06:44:15.741Z,1.30
2019-01-12T06:46:45.279Z,1.40
2019-01-12T06:49:14.317Z,1.50
2019-01-12T06:51:43.303Z,1.60
2019-01-12T06:54:12.289Z,1.40
2019-01-12T06:56:41.257Z,1.40
2019-01-12T06:59:10.141Z,1.50
2019-01-12T07:01:39.404Z,1.40
2019-01-12T07:04:08.581Z,1.30
2019-01-12T07:06:37.593Z,1.40
2019-01-12T07:09:08.200Z,1.40
2019-01-12T07:11:37.053Z,1.40
2019-01-12T07:14:06.230Z,1.40
2019-01-12T07:16:35.147Z,1.50
2019-01-12T07:19:04.486Z,1.50
2019-01-12T07:21:33.327Z,1.50
2019-01-12T07:24:02.257Z,1.40
2019-01-12T07:26:31.498Z,1.50
2019-01-12T07:29:00.423Z,1.50
2019-01-12T07:31:29.571Z,1.50
2019-01-12T07:33:59.777Z,1.50
2019-01-12T07:36:28.846Z,1.50
2019-01-12T07:38:57.656Z,1.50
2019-01-12T07:41:26.531Z,1.40
2019-01-12T07:43:55.362Z,1.40
2019-01-12T07:46:24.313Z,1.30
2019-01-12T07:48:53.628Z,1.40
2019-01-12T07:51:22.605Z,1.40
2019-01-12T07:53:51.453Z,1.40
2019-01-12T07:56:24.367Z,1.50
2019-01-12T07:58:51.465Z,1.40
2019-01-12T08:01:20.342Z,1.50
2019-01-12T08:03:49.581Z,1.50
2019-01-12T08:06:18.469Z,1.50
2019-01-12T08:08:47.383Z,1.50
2019-01-12T08:11:16.295Z,1.60
2019-01-12T08:13:45.381Z,1.60
2019-01-12T08:16:14.894Z,1.60
2019-01-12T08:18:43.853Z,1.70
2019-01-12T08:21:18.742Z,1.70
2019-01-12T08:23:49.550Z,1.50
2019-01-12T08:26:18.801Z,1.60
2019-01-12T08:28:47.735Z,1.60
2019-01-12T08:31:16.917Z,1.60
2019-01-12T08:33:45.786Z,1.60
2019-01-12T08:36:15.321Z,1.60
2019-01-12T08:38:44.248Z,1.60
2019-01-12T08:41:13.703Z,1.70
2019-01-12T08:43:42.718Z,1.70
2019-01-12T08:46:11.673Z,1.80
2019-01-12T08:48:40.623Z,1.80
2019-01-12T08:51:09.656Z,1.70
2019-01-12T08:53:38.719Z,1.80
2019-01-12T08:56:07.583Z,1.80
2019-01-12T08:58:36.602Z,1.80
2019-01-12T09:01:05.962Z,1.80
2019-01-12T09:03:34.798Z,1.80
2019-01-12T09:06:04.398Z,1.90
2019-01-12T09:08:33.465Z,1.80
2019-01-12T09:11:02.458Z,1.80
2019-01-12T09:13:39.313Z,1.90
2019-01-12T09:16:08.454Z,1.90
2019-01-12T09:18:37.373Z,1.90
2019-01-12T09:21:06.392Z,1.90
2019-01-12T09:23:35.305Z,1.80
2019-01-12T09:26:04.314Z,1.90
2019-01-12T09:28:33.293Z,2.10
2019-01-12T09:31:02.230Z,2.10
2019-01-12T09:33:31.088Z,2.10
2019-01-12T09:36:00.074Z,2.10
2019-01-12T09:38:29.108Z,2.10
2019-01-12T09:40:58.449Z,2.10
2019-01-12T09:43:27.589Z,2.20
2019-01-12T09:45:56.592Z,2.10
2019-01-12T09:48:25.598Z,2.20
2019-01-12T09:50:54.534Z,2.40
2019-01-12T09:53:23.577Z,2.50
2019-01-12T09:55:52.515Z,2.60
2019-01-12T09:58:21.369Z,2.50
2019-01-12T10:00:50.271Z,2.50
2019-01-12T10:03:21.318Z,2.50
2019-01-12T10:05:50.309Z,2.50
2019-01-12T10:08:19.257Z,2.50
2019-01-12T10:10:48.181Z,2.60
2019-01-12T10:13:17.094Z,2.50
2019-01-12T10:15:45.989Z,2.50
2019-01-12T10:18:14.838Z,2.50
2019-01-12T10:20:43.806Z,2.50
2019-01-12T10:23:12.685Z,2.60
2019-01-12T10:25:41.603Z,2.60
2019-01-12T10:28:10.641Z,2.60
2019-01-12T10:30:40.822Z,2.60
2019-01-12T10:33:09.882Z,2.60
2019-01-12T10:35:38.801Z,2.50
2019-01-12T10:38:07.769Z,2.50
2019-01-12T10:40:36.717Z,2.40
2019-01-12T10:43:05.781Z,2.40
2019-01-12T10:45:35.025Z,2.30
2019-01-12T10:48:04.114Z,2.20
2019-01-12T10:50:34.197Z,2.20
2019-01-12T10:53:03.477Z,2.30
2019-01-12T10:55:33.976Z,2.30
2019-01-12T10:58:07.857Z,2.30
2019-01-12T11:00:38.421Z,2.40
2019-01-12T11:03:07.555Z,2.30
2019-01-12T11:05:36.921Z,2.40
2019-01-12T11:08:06.629Z,2.40
2019-01-12T11:10:35.994Z,2.50
2019-01-12T11:13:05.185Z,2.60
2019-01-12T11:15:35.187Z,2.60
2019-01-12T11:18:04.690Z,2.60
2019-01-12T11:20:33.602Z,2.60
2019-01-12T11:23:02.642Z,2.50
2019-01-12T11:25:31.635Z,2.50
2019-01-12T11:28:00.577Z,2.50
2019-01-12T11:30:29.576Z,2.50
2019-01-12T11:32:58.535Z,2.60
2019-01-12T11:35:27.696Z,2.60
2019-01-12T11:37:56.605Z,2.60
2019-01-12T11:40:25.623Z,2.60
2019-01-12T11:42:54.931Z,2.70
2019-01-12T11:45:23.859Z,2.80
2019-01-12T11:47:54.164Z,2.80
2019-01-12T11:50:23.085Z,2.70
2019-01-12T11:52:52.542Z,2.80
2019-01-12T11:55:21.770Z,2.80
2019-01-12T11:57:50.763Z,2.80
2019-01-12T12:00:28.118Z,2.90
2019-01-12T12:02:57.362Z,2.80
2019-01-12T12:05:26.460Z,2.90
2019-01-12T12:07:55.566Z,2.90
2019-01-12T12:10:25.037Z,2.90
2019-01-12T12:12:53.966Z,2.90
2019-01-12T12:15:23.378Z,2.90
2019-01-12T12:17:52.367Z,2.90
2019-01-12T12:20:26.398Z,2.90
2019-01-12T12:22:55.418Z,2.90
2019-01-12T12:25:24.314Z,2.80
2019-01-12T12:27:53.314Z,2.80
2019-01-12T12:30:27.692Z,2.80
2019-01-12T12:32:56.684Z,2.80
2019-01-12T12:35:25.659Z,2.70
2019-01-12T12:37:55.114Z,2.80
2019-01-12T12:40:24.773Z,2.80
2019-01-12T12:42:55.245Z,2.80
2019-01-12T12:45:32.439Z,2.80
2019-01-12T12:48:01.414Z,2.70
2019-01-12T12:50:30.588Z,2.70
2019-01-12T12:52:59.756Z,2.60
2019-01-12T12:55:28.776Z,2.60
2019-01-12T12:57:57.768Z,2.60
2019-01-12T13:00:31.544Z,2.60
2019-01-12T13:03:03.422Z,2.60
2019-01-12T13:06:25.205Z,2.80
2019-01-12T13:08:22.229Z,2.70
2019-01-12T13:10:42.682Z,2.60
2019-01-12T13:13:16.155Z,2.70
2019-01-12T13:15:42.558Z,2.80
2019-01-12T13:21:39.906Z,2.60
2019-01-12T13:24:08.931Z,2.40
2019-01-12T13:26:37.903Z,2.50
2019-01-12T13:29:06.871Z,2.50
2019-01-12T13:31:35.862Z,2.50
2019-01-12T13:34:05.441Z,2.50
2019-01-12T13:36:34.394Z,2.50
2019-01-12T13:39:04.753Z,2.50
2019-01-12T13:41:33.968Z,2.60
2019-01-12T13:44:02.907Z,2.60
2019-01-12T13:46:31.953Z,2.60
2019-01-12T13:49:00.934Z,2.70
2019-01-12T13:51:29.850Z,2.80
2019-01-12T13:53:58.756Z,2.80
2019-01-12T13:56:27.674Z,2.70
2019-01-12T13:58:56.561Z,2.60
2019-01-12T14:01:25.644Z,2.50
2019-01-12T14:03:54.732Z,2.50
2019-01-12T14:06:23.873Z,2.40
2019-01-12T14:08:52.705Z,2.50
2019-01-12T14:11:21.624Z,2.40
2019-01-12T14:13:50.457Z,2.40
2019-01-12T14:16:19.502Z,2.30
2019-01-12T14:18:48.414Z,2.40
2019-01-12T14:21:17.937Z,2.40
2019-01-12T14:23:46.851Z,2.40
2019-01-12T14:26:16.066Z,2.40
2019-01-12T14:28:44.881Z,2.50
2019-01-12T14:31:13.780Z,2.40
2019-01-12T14:33:42.740Z,2.40
2019-01-12T14:36:11.750Z,2.40
2019-01-12T14:38:40.678Z,2.50
2019-01-12T14:41:09.589Z,2.30
2019-01-12T14:43:38.681Z,2.30
2019-01-12T14:46:07.573Z,2.30
2019-01-12T14:48:36.732Z,2.30
2019-01-12T14:51:07.262Z,2.30
2019-01-12T14:53:36.360Z,2.30
2019-01-12T14:56:05.561Z,2.30
2019-01-12T14:58:34.529Z,2.20
2019-01-12T15:01:03.677Z,2.30
2019-01-12T15:03:32.597Z,2.20
2019-01-12T15:06:03.439Z,2.30
2019-01-12T15:08:35.290Z,2.30
2019-01-12T15:11:04.177Z,2.30
2019-01-12T15:13:33.406Z,2.40
2019-01-12T15:16:02.781Z,2.40
2019-01-12T15:18:31.748Z,2.30
2019-01-12T15:21:01.373Z,2.30
2019-01-12T15:23:33.569Z,2.30
2019-01-12T15:26:05.414Z,2.30
2019-01-12T15:28:34.800Z,2.20
2019-01-12T15:31:05.250Z,2.20
2019-01-12T15:33:35.493Z,2.20
2019-01-12T15:36:04.477Z,2.20
2019-01-12T15:38:36.348Z,2.30
2019-01-12T15:41:05.807Z,2.40
2019-01-12T15:43:34.783Z,2.40
2019-01-12T15:46:12.032Z,2.40
2019-01-12T15:48:41.017Z,2.30
2019-01-12T15:51:10.089Z,2.30
2019-01-12T15:53:38.915Z,2.30
2019-01-12T15:56:07.873Z,2.30
2019-01-12T15:58:36.807Z,2.30
2019-01-12T16:01:05.810Z,2.20
2019-01-12T16:03:34.853Z,2.20
2019-01-12T16:06:03.904Z,2.10
2019-01-12T16:08:32.945Z,2.20
2019-01-12T16:11:03.971Z,2.20
2019-01-12T16:13:32.967Z,2.30
2019-01-12T16:16:01.986Z,2.20
2019-01-12T16:18:30.973Z,2.20
2019-01-12T16:21:00.238Z,2.30
2019-01-12T16:23:29.159Z,2.20
2019-01-12T16:26:01.443Z,2.20
2019-01-12T16:28:30.341Z,2.10
2019-01-12T16:31:01.857Z,2.20
2019-01-12T16:33:30.905Z,2.20
2019-01-12T16:35:59.915Z,2.20
2019-01-12T16:38:28.905Z,2.10
2019-01-12T16:40:57.917Z,2.20
2019-01-12T16:43:28.647Z,2.10
2019-01-12T16:46:01.850Z,2.10
2019-01-12T16:48:32.539Z,2.20
2019-01-12T16:51:01.441Z,2.20
2019-01-12T16:53:33.045Z,2.10
2019-01-12T16:56:02.107Z,2.00
2019-01-12T16:58:30.992Z,1.90
2019-01-12T17:01:02.766Z,2.00
2019-01-12T17:03:31.807Z,2.00
2019-01-12T17:06:02.029Z,2.10
2019-01-12T17:08:31.425Z,2.00
2019-01-12T17:11:00.353Z,2.10
2019-01-12T17:13:37.793Z,2.10
2019-01-12T17:16:06.780Z,2.10
2019-01-12T17:18:35.744Z,2.00
2019-01-12T17:21:07.587Z,2.00
2019-01-12T17:23:39.520Z,2.00
2019-01-12T17:26:08.733Z,2.00
2019-01-12T17:28:42.791Z,2.00
2019-01-12T17:31:11.714Z,1.90
2019-01-12T17:33:40.641Z,1.90
2019-01-12T17:36:09.638Z,1.90
2019-01-12T17:38:38.547Z,1.90
2019-01-12T17:41:07.449Z,1.90
2019-01-12T17:43:36.509Z,1.80
2019-01-12T17:46:05.493Z,1.80
2019-01-12T17:48:34.486Z,1.80
2019-01-12T17:51:03.516Z,1.80
2019-01-12T17:53:32.513Z,1.80
2019-01-12T17:56:07.778Z,1.80
2019-01-12T17:58:36.990Z,1.70
2019-01-12T18:01:06.986Z,1.60
2019-01-12T18:03:37.785Z,1.60
2019-01-12T18:06:06.700Z,1.40
2019-01-12T18:08:39.594Z,1.40
2019-01-12T18:11:08.671Z,1.50
2019-01-12T18:13:40.484Z,1.50
2019-01-12T18:16:09.561Z,1.50
2019-01-12T18:18:38.718Z,1.40
2019-01-12T18:21:08.139Z,1.40
2019-01-12T18:23:37.126Z,1.30
2019-01-12T18:26:06.132Z,1.40
2019-01-12T18:28:34.974Z,1.40
2019-01-12T18:31:04.423Z,1.30
2019-01-12T18:33:33.593Z,1.20
2019-01-12T18:36:02.609Z,1.30
2019-01-12T18:38:31.613Z,1.20
2019-01-12T18:41:00.536Z,1.30
2019-01-12T18:43:29.531Z,1.30
2019-01-12T18:45:58.428Z,1.20
2019-01-12T18:48:27.348Z,1.30
2019-01-12T18:50:56.342Z,1.30
2019-01-12T18:53:25.298Z,1.30
2019-01-12T18:55:54.276Z,1.30
2019-01-12T18:58:23.186Z,1.30
2019-01-12T19:00:52.121Z,1.30
2019-01-12T19:03:21.110Z,1.30
2019-01-12T19:05:50.242Z,1.40
2019-01-12T19:08:19.178Z,1.30
2019-01-12T19:10:48.192Z,1.30
2019-01-12T19:13:17.211Z,1.30
2019-01-12T19:15:46.331Z,1.40
2019-01-12T19:18:15.659Z,1.20
2019-01-12T19:20:47.277Z,1.30
2019-01-12T19:23:16.193Z,1.20
2019-01-12T19:25:45.246Z,1.30
2019-01-12T19:28:14.207Z,1.30
2019-01-12T19:30:43.177Z,1.20
2019-01-12T19:33:12.252Z,1.10
2019-01-12T19:35:41.238Z,1.10
2019-01-12T19:38:10.239Z,1.10
2019-01-12T19:40:39.581Z,1.00
2019-01-12T19:43:08.854Z,1.10
2019-01-12T19:45:37.838Z,1.10
2019-01-12T19:48:06.857Z,1.20
2019-01-12T19:50:36.687Z,1.10
2019-01-12T19:53:05.681Z,1.00
2019-01-12T19:55:37.669Z,1.10
2019-01-12T19:58:09.360Z,1.00
2019-01-12T20:00:38.326Z,1.10
2019-01-12T20:03:08.101Z,1.10
2019-01-12T20:05:39.591Z,1.10
2019-01-12T20:08:13.081Z,1.10
2019-01-12T20:10:45.061Z,1.20
2019-01-12T20:13:18.014Z,1.20
2019-01-12T20:15:49.695Z,1.10
2019-01-12T20:18:18.618Z,1.00
2019-01-12T20:20:50.692Z,1.10
2019-01-12T20:23:26.822Z,1.20
2019-01-12T20:25:55.831Z,1.10
2019-01-12T20:28:25.122Z,1.10
2019-01-12T20:31:32.266Z,1.00
2019-01-12T20:34:18.126Z,1.10
2019-01-12T20:37:49.292Z,1.10
2019-01-12T20:40:42.066Z,1.10
2019-01-12T20:43:56.622Z,1.10
2019-01-12T20:46:58.578Z,1.10
2019-01-12T20:49:35.588Z,1.20
2019-01-12T20:52:27.837Z,1.20
2019-01-12T20:55:16.288Z,1.10
2019-01-12T20:58:05.558Z,1.00
2019-01-12T21:01:14.119Z,1.10
2019-01-12T21:04:26.159Z,1.10
2019-01-12T21:07:15.730Z,1.10
2019-01-12T21:10:05.070Z,1.10
2019-01-12T21:13:12.750Z,1.20
2019-01-12T21:15:54.072Z,1.20
2019-01-12T21:18:23.030Z,1.20
2019-01-12T21:20:59.074Z,1.20
2019-01-12T21:23:27.780Z,1.30
2019-01-12T21:25:56.774Z,1.30
2019-01-12T21:28:28.809Z,1.20
2019-01-12T21:30:57.731Z,1.20
2019-01-12T21:33:26.734Z,1.30
2019-01-12T21:35:58.521Z,1.20
2019-01-12T21:38:27.823Z,1.20
2019-01-12T21:40:56.983Z,1.20
2019-01-12T21:43:25.877Z,1.20
2019-01-12T21:45:54.807Z,1.20
2019-01-12T21:48:29.861Z,1.20
2019-01-12T21:50:59.878Z,1.10
2019-01-12T21:53:28.869Z,1.10
2019-01-12T21:55:59.411Z,1.10
2019-01-12T21:58:28.327Z,1.10
2019-01-12T22:00:57.268Z,1.00
2019-01-12T22:03:26.431Z,1.10
2019-01-12T22:05:55.438Z,1.10
2019-01-12T22:08:24.387Z,1.10
2019-01-12T22:10:53.434Z,1.00
2019-01-12T22:13:22.386Z,1.00
2019-01-12T22:15:51.397Z,1.10
2019-01-12T22:18:20.302Z,1.20
2019-01-12T22:20:49.204Z,1.20
2019-01-12T22:23:18.122Z,1.20
2019-01-12T22:25:47.066Z,1.30
2019-01-12T22:28:15.986Z,1.20
2019-01-12T22:30:44.958Z,1.20
2019-01-12T22:33:13.963Z,1.30
2019-01-12T22:35:42.976Z,1.30
2019-01-12T22:38:12.214Z,1.30
2019-01-12T22:40:41.186Z,1.20
2019-01-12T22:43:10.176Z,1.20
2019-01-12T22:45:39.093Z,1.20
2019-01-12T22:48:07.993Z,1.30
2019-01-12T22:50:36.981Z,1.30
2019-01-12T22:53:05.917Z,1.30
2019-01-12T22:55:35.205Z,1.40
2019-01-12T22:58:04.196Z,1.30
2019-01-12T23:00:58.703Z,1.30
2019-01-12T23:03:27.742Z,1.40
2019-01-12T23:05:56.572Z,1.30
2019-01-12T23:08:25.533Z,1.30
2019-01-12T23:10:54.441Z,1.30
2019-01-12T23:13:23.306Z,1.30
2019-01-12T23:15:52.300Z,1.20
2019-01-12T23:18:21.310Z,1.30
2019-01-12T23:20:50.532Z,1.40
2019-01-12T23:23:19.526Z,1.40
2019-01-12T23:25:48.477Z,1.40
2019-01-12T23:28:20.077Z,1.30
2019-01-12T23:30:49.010Z,1.30
2019-01-12T23:33:18.000Z,1.20
2019-01-12T23:35:46.896Z,1.30
2019-01-12T23:38:15.896Z,1.20
2019-01-12T23:40:44.870Z,1.30
2019-01-12T23:43:13.785Z,1.40
2019-01-12T23:45:42.772Z,1.40
2019-01-12T23:48:12.282Z,1.40
2019-01-12T23:50:41.169Z,1.40
2019-01-12T23:53:10.073Z,1.40
2019-01-12T23:55:38.976Z,1.50
2019-01-12T23:58:07.801Z,1.50
